CYGR

Îles-de-la-Madeleine Airport

Îles-de-la-Madeleine, Quebec, Canada
METAR CYGR 260300Z 15010G16KT 15SM OVC120 M06/M10 A3034 RMK AC8 LAST STFD OBS/NEXT 261000 UTC PRESFR SLP275
Observed Flight Rules
Feb-26 @ 03:00 UTC (33 minutes ago) Visual Flight Rules
Wind Visibility Clouds
150° at 10 knots
 Gusting to 16 knots
15 miles
  • Overcast at 12,000' AGL
Temperatures Readings
Current -6°C / 21°F
Dewpoint -10°C / 14°F
Humidity 74%
Altimeter 30.34" Hg
Pressure 1027.5 hPa
Elevation 10
METAR CYGR 260300Z 15010G16KT 15SM OVC120 M06/M10 A3034 RMK AC8 LAST STFD OBS/NEXT 261000 UTC PRESFR SLP275
Observed Flight Rules
Feb-26 @ 03:00 UTC
(33 minutes ago)
VFR
Wind Visibility
150° at 10 knots
 Gusting to 16 knots
15 miles
Clouds
  • Overcast at 12,000' AGL
Temperature Dewpoint
-6°C / 21°F -10°C / 14°F
Humidity Altimeter Pressure
74% 30.34" Hg 1027.5 hPa